Time;durP1;ratioP1;P1;durP2;ratioP2;P2;SDS_P1;SDS_P2;PMS_P1;PMS_P2;Temp;Humidity;BMP_temperature;BMP_pressure;BME280_temperature;BME280_humidity;BME280_pressure;Samples;Min_cycle;Max_cycle;Signal;HPM_P1;HPM_P2
2023/09/16 00:01:10;;;;;;;0.10;0.10;;;;;;;23.01;49.54;101568.44;5069497;28;20040;-69
2023/09/16 00:03:36;;;;;;;0.10;0.10;;;;;;;22.98;49.69;101562.72;5069546;28;20442;-69
2023/09/16 00:06:04;;;;;;;0.10;0.10;;;;;;;23.01;49.69;101565.72;5069351;28;20066;-69
2023/09/16 00:08:29;;;;;;;0.10;0.10;;;;;;;23.03;49.27;101555.28;5069476;28;20176;-69
2023/09/16 00:10:55;;;;;;;0.10;0.10;;;;;;;23.07;49.32;101558.25;5069870;28;20090;-69
2023/09/16 00:13:20;;;;;;;0.10;0.10;;;;;;;22.96;49.59;101560.25;5096219;28;20381;-70
2023/09/16 00:15:48;;;;;;;0.20;0.20;;;;;;;22.98;50.01;101565.44;5089672;28;20040;-70
2023/09/16 00:18:16;;;;;;;0.10;0.10;;;;;;;23.01;49.46;101548.44;5089698;28;20030;-69
2023/09/16 00:20:42;;;;;;;0.20;0.20;;;;;;;22.97;49.24;101555.59;5089606;28;20032;-69
2023/09/16 00:23:10;;;;;;;0.10;0.10;;;;;;;22.87;49.83;101556.53;5090477;28;20107;-69
2023/09/16 00:25:36;;;;;;;0.10;0.10;;;;;;;22.91;49.22;101552.09;5089804;28;20064;-69
2023/09/16 00:28:01;;;;;;;0.13;0.13;;;;;;;22.81;50.51;101549.47;5104871;28;20038;-69
2023/09/16 00:30:26;;;;;;;0.20;0.20;;;;;;;22.90;50.03;101549.66;5110261;28;20047;-68
2023/09/16 00:32:52;;;;;;;0.10;0.10;;;;;;;22.79;50.90;101543.44;5092327;28;20028;-69
2023/09/16 00:35:18;;;;;;;0.10;0.10;;;;;;;22.88;51.21;101540.91;5090111;28;20024;-70
2023/09/16 00:37:44;;;;;;;0.08;0.08;;;;;;;22.95;51.25;101535.88;5089754;28;20105;-69
2023/09/16 00:40:10;;;;;;;0.10;0.10;;;;;;;22.85;51.01;101533.25;5089471;28;20511;-69
2023/09/16 00:42:38;;;;;;;0.10;0.10;;;;;;;22.89;50.34;101528.81;5093122;28;20036;-69
2023/09/16 00:45:12;;;;;;;0.20;0.20;;;;;;;22.97;51.07;101536.41;5092966;28;20031;-69
2023/09/16 00:47:39;;;;;;;0.10;0.10;;;;;;;22.95;50.77;101530.41;5093434;28;20024;-69
2023/09/16 00:50:07;;;;;;;0.10;0.10;;;;;;;22.90;50.94;101530.47;5108926;28;20035;-69
2023/09/16 00:52:37;;;;;;;0.10;0.10;;;;;;;22.79;51.66;101528.94;5093042;28;20032;-69
2023/09/16 00:55:04;;;;;;;0.10;0.10;;;;;;;22.89;50.72;101528.81;5093143;28;20059;-69
2023/09/16 00:57:30;;;;;;;0.10;0.10;;;;;;;22.92;50.03;101525.53;5092690;28;20507;-69
2023/09/16 00:59:56;;;;;;;0.10;0.10;;;;;;;22.92;50.10;101520.03;5093441;28;20039;-70
2023/09/16 01:02:22;;;;;;;0.20;0.20;;;;;;;22.75;50.50;101527.88;5093593;28;20487;-69
2023/09/16 01:04:49;;;;;;;0.10;0.10;;;;;;;22.65;51.21;101526.88;5092927;28;20039;-70
2023/09/16 01:07:15;;;;;;;0.10;0.10;;;;;;;22.73;51.20;101524.59;5092842;28;20526;-69
2023/09/16 01:09:41;;;;;;;0.10;0.10;;;;;;;22.59;52.10;101535.41;5093018;28;20028;-68
2023/09/16 01:12:08;;;;;;;0.10;0.10;;;;;;;22.57;51.08;101534.88;5092532;28;20511;-70
2023/09/16 01:14:33;;;;;;;0.20;0.20;;;;;;;22.51;51.85;101533.25;5092746;28;20525;-69
2023/09/16 01:17:02;;;;;;;0.10;0.10;;;;;;;22.64;50.83;101536.19;5093173;28;20028;-69
2023/09/16 01:20:08;;;;;;;0.13;0.13;;;;;;;22.72;50.77;101532.03;5092620;28;20484;-69
2023/09/16 01:22:34;;;;;;;0.10;0.10;;;;;;;22.57;51.08;101524.75;5049166;28;20047;-69
2023/09/16 01:25:05;;;;;;;0.10;0.10;;;;;;;22.58;50.79;101518.16;5049615;28;20100;-69
2023/09/16 01:27:30;;;;;;;0.10;0.10;;;;;;;22.45;52.31;101524.28;5049512;28;20075;-69
2023/09/16 01:29:56;;;;;;;0.10;0.10;;;;;;;22.53;51.27;101520.09;5049388;28;20064;-69
2023/09/16 01:32:30;;;;;;;0.20;0.20;;;;;;;22.54;50.93;101519.81;5054614;28;20702;-69
2023/09/16 01:34:57;;;;;;;0.10;0.10;;;;;;;22.51;51.86;101514.09;5049627;28;20132;-70
2023/09/16 01:37:24;;;;;;;0.10;0.10;;;;;;;22.46;51.96;101520.44;5049181;28;20143;-70
2023/09/16 01:39:56;;;;;;;0.20;0.20;;;;;;;22.60;51.65;101513.22;5049242;28;20041;-69
2023/09/16 01:42:22;;;;;;;0.10;0.10;;;;;;;22.46;51.69;101509.50;5049415;28;20060;-70
2023/09/16 01:44:51;;;;;;;0.10;0.10;;;;;;;22.54;50.94;101513.53;5037207;28;20503;-69
2023/09/16 01:47:17;;;;;;;0.10;0.10;;;;;;;22.58;50.69;101522.84;5029637;28;20029;-68
2023/09/16 01:49:42;;;;;;;0.10;0.10;;;;;;;22.54;51.54;101519.81;5029094;28;20117;-69
2023/09/16 01:52:08;;;;;;;0.10;0.10;;;;;;;22.50;52.06;101520.69;5027825;28;20509;-69
2023/09/16 01:54:34;;;;;;;0.10;0.10;;;;;;;22.47;52.04;101515.78;5028914;28;20042;-69
2023/09/16 01:57:00;;;;;;;0.10;0.10;;;;;;;22.62;51.34;101512.94;5042571;28;20586;-69
2023/09/16 01:59:25;;;;;;;0.20;0.20;;;;;;;22.65;51.79;101507.69;5080996;28;20083;-68
2023/09/16 02:01:50;;;;;;;0.10;0.10;;;;;;;22.54;51.82;101516.28;5092150;28;20024;-69
2023/09/16 02:04:16;;;;;;;0.10;0.10;;;;;;;22.57;51.29;101523.94;5091591;28;20028;-70
2023/09/16 02:06:44;;;;;;;0.13;0.13;;;;;;;22.64;51.38;101522.47;5091681;28;20040;-69
2023/09/16 02:09:09;;;;;;;0.10;0.10;;;;;;;22.57;51.86;101521.19;5091790;28;20047;-69
2023/09/16 02:11:36;;;;;;;0.20;0.20;;;;;;;22.58;52.04;101525.59;5091881;28;20107;-70
2023/09/16 02:14:02;;;;;;;0.10;0.10;;;;;;;22.63;51.67;101518.13;5091813;28;20044;-71
2023/09/16 02:16:27;;;;;;;0.10;0.10;;;;;;;22.59;52.13;101518.97;5091539;28;20115;-69
2023/09/16 02:18:53;;;;;;;0.10;0.10;;;;;;;22.58;51.37;101525.59;5092961;28;20032;-69
2023/09/16 02:21:19;;;;;;;0.20;0.20;;;;;;;22.64;51.44;101532.66;5111837;28;20038;-69
2023/09/16 02:23:44;;;;;;;0.10;0.10;;;;;;;22.61;51.48;101525.81;5092472;28;20491;-69
2023/09/16 02:26:09;;;;;;;0.20;0.20;;;;;;;22.58;51.05;101520.91;5111270;28;20053;-69
2023/09/16 02:28:35;;;;;;;0.13;0.13;;;;;;;22.48;52.17;101514.69;5102312;28;20519;-69
2023/09/16 02:31:00;;;;;;;0.20;0.20;;;;;;;22.57;51.06;101513.78;5090355;28;20119;-70
2023/09/16 02:33:26;;;;;;;0.10;0.10;;;;;;;22.56;51.32;101514.06;5090399;28;20077;-69
2023/09/16 02:35:51;;;;;;;0.15;0.15;;;;;;;22.52;51.65;101513.00;5090278;28;20039;-69
2023/09/16 02:38:17;;;;;;;0.10;0.10;;;;;;;22.49;51.19;101511.66;5072338;28;20019;-68
2023/09/16 02:40:42;;;;;;;0.10;0.10;;;;;;;22.48;51.79;101522.91;5089964;28;20028;-69
2023/09/16 02:43:08;;;;;;;0.17;0.17;;;;;;;22.32;51.85;101522.22;5089755;28;20059;-70
2023/09/16 02:45:43;;;;;;;0.10;0.10;;;;;;;22.42;51.81;101519.38;5089535;28;20119;-69
2023/09/16 02:48:08;;;;;;;0.10;0.10;;;;;;;22.37;52.40;101518.59;5105521;28;20024;-69
2023/09/16 02:50:37;;;;;;;0.08;0.08;;;;;;;22.32;52.39;101518.66;5089982;28;20058;-70
2023/09/16 02:53:03;;;;;;;0.10;0.10;;;;;;;22.19;52.33;101514.63;5090275;28;20434;-69
2023/09/16 02:55:31;;;;;;;0.20;0.20;;;;;;;22.29;52.03;101517.28;5090012;28;20032;-70
2023/09/16 02:57:56;;;;;;;0.20;0.20;;;;;;;22.19;52.76;101524.78;5089898;28;20035;-69
2023/09/16 03:00:21;;;;;;;0.10;0.10;;;;;;;22.02;53.61;101524.34;5089233;28;20040;-70
2023/09/16 03:02:49;;;;;;;0.10;0.10;;;;;;;22.12;53.29;101521.53;5089844;28;20066;-70
2023/09/16 03:05:14;;;;;;;0.17;0.17;;;;;;;22.22;52.50;101516.00;5090205;28;20507;-69
2023/09/16 03:07:40;;;;;;;0.20;0.20;;;;;;;21.98;53.05;101513.16;5105351;28;20039;-69
2023/09/16 03:10:05;;;;;;;0.10;0.10;;;;;;;22.00;53.08;101524.63;5090367;28;20032;-69
2023/09/16 03:12:30;;;;;;;0.10;0.10;;;;;;;22.05;53.11;101513.66;5090436;28;20060;-70
2023/09/16 03:14:56;;;;;;;0.10;0.10;;;;;;;22.00;53.53;101516.44;5090252;28;20047;-68
2023/09/16 03:17:21;;;;;;;0.10;0.10;;;;;;;21.99;53.53;101512.06;5111284;28;20031;-70
2023/09/16 03:19:47;;;;;;;0.10;0.10;;;;;;;22.07;52.60;101511.47;5110721;28;20383;-70
2023/09/16 03:22:12;;;;;;;0.10;0.10;;;;;;;21.99;54.06;101519.44;5110550;28;20031;-69
2023/09/16 03:24:38;;;;;;;0.10;0.10;;;;;;;22.20;53.45;101509.97;5104211;28;20032;-69
2023/09/16 03:27:03;;;;;;;0.10;0.10;;;;;;;22.19;53.63;101511.09;5090126;28;20031;-70
2023/09/16 03:29:29;;;;;;;0.20;0.20;;;;;;;22.04;52.91;101509.28;5090138;28;20059;-69
2023/09/16 03:31:54;;;;;;;0.10;0.10;;;;;;;22.11;53.23;101508.97;5090459;28;20051;-69
2023/09/16 03:34:20;;;;;;;0.10;0.10;;;;;;;22.13;52.48;101502.09;5090073;28;20035;-70
2023/09/16 03:36:45;;;;;;;0.10;0.10;;;;;;;22.07;52.53;101499.69;5090145;28;20398;-69
2023/09/16 03:39:10;;;;;;;0.10;0.10;;;;;;;22.17;52.75;101491.41;5089908;28;20044;-69
2023/09/16 03:41:37;;;;;;;0.13;0.13;;;;;;;22.04;53.44;101486.56;5090036;28;20503;-69
2023/09/16 03:44:03;;;;;;;0.10;0.10;;;;;;;22.07;52.37;101491.47;5090335;28;20134;-69
2023/09/16 03:46:28;;;;;;;0.17;0.17;;;;;;;22.08;52.68;101488.44;5071808;28;20115;-69
2023/09/16 03:48:54;;;;;;;0.10;0.10;;;;;;;22.05;52.82;101483.56;5090224;28;20069;-70
2023/09/16 03:51:19;;;;;;;0.10;0.10;;;;;;;22.03;52.45;101485.75;5090036;28;20201;-70
2023/09/16 03:53:45;;;;;;;0.17;0.17;;;;;;;22.04;52.60;101479.16;5090178;28;20400;-69
2023/09/16 03:56:11;;;;;;;0.20;0.20;;;;;;;21.99;53.40;101484.69;5090499;28;20028;-69
2023/09/16 03:58:37;;;;;;;0.20;0.20;;;;;;;22.11;52.42;101479.66;5089808;28;20067;-70
2023/09/16 04:01:03;;;;;;;0.10;0.10;;;;;;;22.14;52.30;101481.00;5086984;28;20044;-69
2023/09/16 04:03:29;;;;;;;0.10;0.10;;;;;;;22.08;53.05;101480.22;5071060;28;20541;-69
2023/09/16 04:05:58;;;;;;;0.10;0.10;;;;;;;22.04;52.63;101472.88;5072922;28;20127;-70
2023/09/16 04:08:23;;;;;;;0.10;0.10;;;;;;;21.98;52.89;101472.09;5083675;28;20376;-70
2023/09/16 04:10:49;;;;;;;0.10;0.10;;;;;;;21.97;53.14;101470.47;5076458;28;20052;-70
2023/09/16 04:13:14;;;;;;;0.20;0.20;;;;;;;21.93;52.94;101479.53;5100231;28;20543;-70
2023/09/16 04:15:40;;;;;;;0.10;0.10;;;;;;;22.04;53.41;101472.88;5090225;28;20043;-69
2023/09/16 04:18:05;;;;;;;0.10;0.10;;;;;;;22.04;53.48;101479.16;5093799;28;20039;-69
2023/09/16 04:20:31;;;;;;;0.20;0.20;;;;;;;22.04;53.29;101489.28;5093738;28;20082;-68
2023/09/16 04:22:56;;;;;;;0.20;0.20;;;;;;;22.01;53.55;101479.75;5094031;28;20024;-70
2023/09/16 04:25:22;;;;;;;0.10;0.10;;;;;;;21.89;53.17;101481.22;5093700;28;20063;-70
2023/09/16 04:27:47;;;;;;;0.20;0.20;;;;;;;21.91;53.62;101479.81;5093565;28;20040;-70
2023/09/16 04:30:13;;;;;;;0.10;0.10;;;;;;;21.90;53.95;101469.13;5093409;28;20024;-69
2023/09/16 04:32:38;;;;;;;0.10;0.10;;;;;;;21.87;54.10;101472.47;5093698;28;20672;-69
2023/09/16 04:35:04;;;;;;;0.10;0.10;;;;;;;21.94;54.24;101472.94;5094071;28;20031;-69
2023/09/16 04:37:29;;;;;;;0.10;0.10;;;;;;;21.93;54.11;101471.31;5093275;28;20075;-70
2023/09/16 04:39:55;;;;;;;0.17;0.17;;;;;;;21.89;53.83;101478.47;5091890;28;20500;-70
2023/09/16 04:42:20;;;;;;;0.10;0.10;;;;;;;21.83;53.75;101475.78;5093223;28;20032;-70
2023/09/16 04:44:48;;;;;;;0.10;0.10;;;;;;;21.85;53.48;101470.03;5092839;28;20074;-69
2023/09/16 04:47:14;;;;;;;0.10;0.10;;;;;;;21.88;53.20;101474.91;5093795;28;20476;-69
2023/09/16 04:49:39;;;;;;;0.20;0.20;;;;;;;21.84;54.25;101482.06;5093345;28;20024;-69
2023/09/16 04:52:05;;;;;;;0.20;0.20;;;;;;;21.91;53.54;101482.56;5093169;28;20036;-70
2023/09/16 04:54:35;;;;;;;0.13;0.13;;;;;;;21.83;53.62;101475.78;5093160;28;20514;-69
2023/09/16 04:57:01;;;;;;;0.10;0.10;;;;;;;21.74;53.74;101480.16;5093062;28;20028;-69
2023/09/16 04:59:27;;;;;;;0.20;0.20;;;;;;;21.87;53.29;101478.75;5092710;28;20043;-69
2023/09/16 05:01:52;;;;;;;0.10;0.10;;;;;;;21.81;53.10;101486.19;5093382;28;20020;-69
2023/09/16 05:04:18;;;;;;;0.10;0.10;;;;;;;21.75;53.88;101479.09;5092808;28;20060;-69
2023/09/16 05:06:43;;;;;;;0.10;0.10;;;;;;;21.82;53.42;101481.50;5092370;28;20483;-70
2023/09/16 05:09:09;;;;;;;0.20;0.20;;;;;;;21.82;53.51;101478.78;5107076;28;20488;-70
2023/09/16 05:11:34;;;;;;;0.20;0.20;;;;;;;21.68;53.76;101480.47;5112883;28;20031;-69
2023/09/16 05:13:59;;;;;;;0.20;0.20;;;;;;;21.79;53.58;101487.53;5112278;28;20487;-70
2023/09/16 05:16:25;;;;;;;0.20;0.20;;;;;;;21.89;53.41;101478.47;5092171;28;20035;-70
2023/09/16 05:18:50;;;;;;;0.20;0.20;;;;;;;21.89;53.69;101470.25;5092388;28;20068;-69
2023/09/16 05:21:16;;;;;;;0.10;0.10;;;;;;;22.02;53.60;101469.59;5092351;28;20039;-69
2023/09/16 05:23:41;;;;;;;0.20;0.20;;;;;;;21.94;54.08;101464.72;5092188;28;20464;-68
2023/09/16 05:26:06;;;;;;;0.10;0.10;;;;;;;21.91;54.66;101463.41;5108119;28;20028;-69
2023/09/16 05:28:32;;;;;;;0.30;0.30;;;;;;;21.88;54.79;101460.44;5092140;28;20070;-70
2023/09/16 05:30:57;;;;;;;0.20;0.20;;;;;;;21.72;55.55;101462.41;5091928;28;20040;-69
2023/09/16 05:33:24;;;;;;;0.20;0.20;;;;;;;22.04;55.41;101467.41;5092127;28;20049;-69
2023/09/16 05:35:50;;;;;;;0.10;0.10;;;;;;;22.14;54.67;101468.13;5092214;28;20024;-69
2023/09/16 05:38:15;;;;;;;0.10;0.10;;;;;;;22.13;54.66;101482.13;5092402;28;20031;-69
2023/09/16 05:40:41;;;;;;;0.20;0.20;;;;;;;22.09;55.04;101472.84;5091826;28;20661;-69
2023/09/16 05:43:06;;;;;;;0.20;0.20;;;;;;;22.17;54.38;101477.72;5091964;28;20089;-69
2023/09/16 05:45:31;;;;;;;0.20;0.20;;;;;;;22.19;54.26;101491.94;5091472;28;20432;-69
2023/09/16 05:48:01;;;;;;;0.10;0.10;;;;;;;22.14;54.67;101489.22;5106761;28;20086;-69
2023/09/16 05:50:27;;;;;;;0.10;0.10;;;;;;;21.99;55.63;101487.44;5091827;28;20073;-69
2023/09/16 05:52:52;;;;;;;0.10;0.10;;;;;;;22.27;54.61;101488.59;5092232;28;20464;-69
2023/09/16 05:55:18;;;;;;;0.20;0.20;;;;;;;22.22;54.32;101489.44;5073188;28;20032;-70
2023/09/16 05:57:43;;;;;;;0.20;0.20;;;;;;;22.65;53.18;101484.94;5091902;28;20101;-70
2023/09/16 06:00:09;;;;;;;0.10;0.10;;;;;;;22.38;54.82;101482.72;5091889;28;20051;-71
2023/09/16 06:02:38;;;;;;;0.10;0.10;;;;;;;22.42;54.47;101486.53;5091675;28;20024;-70
2023/09/16 06:05:05;;;;;;;0.10;0.10;;;;;;;22.51;54.22;101493.00;5085279;28;20024;-69
2023/09/16 06:07:31;;;;;;;0.10;0.10;;;;;;;22.43;53.74;101495.53;5111554;28;20039;-69
2023/09/16 06:09:56;;;;;;;0.10;0.10;;;;;;;22.43;54.52;101493.63;5111801;28;20027;-70
2023/09/16 06:12:21;;;;;;;0.20;0.20;;;;;;;22.49;54.32;101497.13;5111411;28;20040;-69
2023/09/16 06:14:47;;;;;;;0.10;0.10;;;;;;;22.64;54.43;101502.50;5093435;28;20036;-70
2023/09/16 06:17:12;;;;;;;0.10;0.10;;;;;;;22.65;54.05;101495.91;5091865;28;20479;-69
2023/09/16 06:19:38;;;;;;;0.17;0.17;;;;;;;22.64;54.34;101497.03;5091459;28;20035;-70
2023/09/16 06:22:04;;;;;;;0.10;0.10;;;;;;;22.62;55.31;101502.78;5091462;28;20036;-70
2023/09/16 06:24:29;;;;;;;0.10;0.10;;;;;;;22.99;53.80;101498.56;5106374;28;20089;-70
2023/09/16 06:26:54;;;;;;;0.10;0.10;;;;;;;23.40;53.00;101505.22;5091462;28;20040;-70
2023/09/16 06:29:20;;;;;;;0.10;0.10;;;;;;;23.88;51.29;101506.72;5091606;28;20024;-70
2023/09/16 06:31:45;;;;;;;0.20;0.20;;;;;;;23.94;51.74;101505.53;5091187;28;20036;-68
2023/09/16 06:34:11;;;;;;;0.17;0.17;;;;;;;23.47;53.60;101500.16;5091124;28;20587;-70
2023/09/16 06:36:39;;;;;;;0.10;0.10;;;;;;;23.52;54.47;101500.94;5072966;28;20380;-71
2023/09/16 06:39:07;;;;;;;0.08;0.08;;;;;;;23.81;53.14;101505.47;5090584;28;20036;-70
2023/09/16 06:41:32;;;;;;;0.20;0.20;;;;;;;23.95;53.71;101509.09;5091117;28;20036;-73
2023/09/16 06:43:58;;;;;;;0.17;0.17;;;;;;;24.29;53.36;101515.97;5091443;28;20048;-70
2023/09/16 06:46:23;;;;;;;0.10;0.10;;;;;;;24.51;52.75;101511.78;5090894;28;20059;-69
2023/09/16 06:48:48;;;;;;;0.10;0.10;;;;;;;24.70;52.81;101507.84;5091112;28;20031;-70
2023/09/16 06:51:14;;;;;;;0.10;0.10;;;;;;;24.57;52.31;101508.63;5090775;28;20050;-70
2023/09/16 06:53:39;;;;;;;0.10;0.10;;;;;;;24.87;52.62;101508.09;5090803;28;20020;-69
2023/09/16 06:56:05;;;;;;;0.10;0.10;;;;;;;25.20;51.22;101504.13;5091172;28;20020;-70
2023/09/16 06:58:30;;;;;;;0.10;0.10;;;;;;;26.05;49.70;101512.44;5072213;28;20484;-70
2023/09/16 07:00:55;;;;;;;0.10;0.10;;;;;;;25.86;49.15;101514.56;5098548;28;20043;-70
2023/09/16 07:03:21;;;;;;;0.10;0.10;;;;;;;25.68;50.20;101506.44;5110873;28;20058;-70
2023/09/16 07:05:47;;;;;;;0.10;0.10;;;;;;;25.59;50.40;101509.09;5110751;28;20108;-69
2023/09/16 07:08:14;;;;;;;0.00;0.00;;;;;;;25.65;50.36;101507.88;5111215;28;20039;-69
2023/09/16 07:10:39;;;;;;;0.00;0.00;;;;;;;25.66;49.87;101504.00;5095630;28;20020;-70
2023/09/16 07:13:05;;;;;;;0.10;0.10;;;;;;;26.03;49.79;101502.84;5090257;28;20380;-72
2023/09/16 07:15:30;;;;;;;0.10;0.10;;;;;;;25.67;49.73;101499.31;5071419;28;20035;-70
2023/09/16 07:17:56;;;;;;;0.10;0.10;;;;;;;25.88;49.83;101500.47;5090295;28;20028;-71
2023/09/16 07:20:22;;;;;;;0.10;0.10;;;;;;;26.06;49.55;101500.31;5090731;28;20140;-69
2023/09/16 07:22:49;;;;;;;0.00;0.00;;;;;;;25.83;49.94;101501.41;5090489;28;20564;-71
2023/09/16 07:25:15;;;;;;;0.10;0.10;;;;;;;25.80;50.23;101498.44;5090109;28;20361;-70
2023/09/16 07:27:40;;;;;;;0.00;0.00;;;;;;;26.60;47.99;101499.22;5089519;28;20047;-69
2023/09/16 07:30:06;;;;;;;0.00;0.00;;;;;;;26.36;48.64;101508.97;5089597;28;20032;-70
2023/09/16 07:32:31;;;;;;;0.10;0.10;;;;;;;26.27;48.62;101511.66;5089605;28;20028;-69
2023/09/16 07:34:57;;;;;;;0.10;0.10;;;;;;;26.35;48.54;101508.16;5090123;28;20023;-70
2023/09/16 07:37:22;;;;;;;0.00;0.00;;;;;;;26.33;49.41;101509.59;5089561;28;20043;-70
2023/09/16 07:39:50;;;;;;;0.00;0.00;;;;;;;26.44;48.81;101509.00;5089589;28;20051;-70
2023/09/16 07:42:15;;;;;;;0.10;0.10;;;;;;;26.73;48.13;101508.56;5089368;28;20144;-70
2023/09/16 07:44:41;;;;;;;0.10;0.10;;;;;;;26.48;49.47;101510.00;5071071;28;20120;-70
2023/09/16 07:47:06;;;;;;;0.00;0.00;;;;;;;26.87;48.63;101512.84;5089665;28;20024;-69
2023/09/16 07:49:31;;;;;;;0.08;0.08;;;;;;;26.99;48.42;101508.69;5090232;28;20036;-74
2023/09/16 07:51:57;;;;;;;0.00;0.00;;;;;;;26.95;48.02;101514.84;5093737;28;20040;-70
2023/09/16 07:54:22;;;;;;;0.00;0.00;;;;;;;27.08;48.04;101524.16;5075662;28;20024;-70
2023/09/16 07:56:47;;;;;;;0.00;0.00;;;;;;;27.15;47.71;101512.63;5094018;28;20032;-70
2023/09/16 07:59:19;;;;;;;0.00;0.00;;;;;;;27.28;47.66;101514.47;5094021;28;20028;-69
2023/09/16 08:01:44;;;;;;;0.03;0.03;;;;;;;27.34;47.62;101513.22;5091359;28;20399;-70
2023/09/16 08:04:10;;;;;;;0.00;0.00;;;;;;;27.37;47.50;101504.28;5093621;28;20024;-69
2023/09/16 08:06:36;;;;;;;0.00;0.00;;;;;;;27.48;46.78;101505.59;5093429;28;20028;-69
2023/09/16 08:09:01;;;;;;;0.00;0.00;;;;;;;26.88;49.03;101517.25;5093707;28;20032;-69
2023/09/16 08:11:26;;;;;;;0.00;0.00;;;;;;;27.42;47.21;101509.66;5093471;28;20400;-69
2023/09/16 08:13:52;;;;;;;0.00;0.00;;;;;;;27.75;46.84;101513.63;5093448;28;20063;-69
2023/09/16 08:16:17;;;;;;;0.00;0.00;;;;;;;27.78;46.43;101510.19;5092850;28;20055;-69
2023/09/16 08:18:42;;;;;;;0.08;0.08;;;;;;;26.74;49.42;101523.97;5093192;28;20574;-69
2023/09/16 08:21:08;;;;;;;0.00;0.00;;;;;;;27.73;47.13;101515.88;5093275;28;20094;-70
2023/09/16 08:23:33;;;;;;;0.00;0.00;;;;;;;28.20;45.25;101514.94;5093190;28;20031;-69
2023/09/16 08:25:59;;;;;;;0.00;0.00;;;;;;;28.47;44.07;101514.56;5093711;28;20012;-70
2023/09/16 08:28:24;;;;;;;0.00;0.00;;;;;;;28.58;44.29;101517.81;5092925;28;20345;-69
2023/09/16 08:30:50;;;;;;;0.00;0.00;;;;;;;28.80;43.15;101517.59;5092913;28;20488;-70
2023/09/16 08:33:16;;;;;;;0.00;0.00;;;;;;;28.83;43.34;101516.13;5092940;28;20067;-71
2023/09/16 08:35:42;;;;;;;0.00;0.00;;;;;;;28.96;43.46;101513.13;5093193;28;20024;-69
2023/09/16 08:38:08;;;;;;;0.00;0.00;;;;;;;29.16;43.06;101520.72;5093408;28;20023;-69
2023/09/16 08:40:33;;;;;;;0.00;0.00;;;;;;;29.46;42.18;101521.53;5092777;28;20061;-69
2023/09/16 08:43:08;;;;;;;0.00;0.00;;;;;;;29.43;43.03;101519.44;5092627;28;20449;-70
2023/09/16 08:45:37;;;;;;;0.00;0.00;;;;;;;29.59;42.71;101523.25;5090784;28;20054;-69
2023/09/16 08:48:05;;;;;;;0.00;0.00;;;;;;;29.88;40.95;101527.94;5089783;28;20089;-70
2023/09/16 08:50:32;;;;;;;0.00;0.00;;;;;;;30.25;40.40;101522.22;5092359;28;20067;-70
2023/09/16 08:53:03;;;;;;;0.00;0.00;;;;;;;30.69;39.35;101530.94;5093879;28;20047;-71
2023/09/16 08:55:29;;;;;;;0.00;0.00;;;;;;;30.92;38.78;101530.22;5089665;28;20032;-69
2023/09/16 08:58:06;;;;;;;0.00;0.00;;;;;;;31.24;37.97;101533.22;5092021;28;20060;-69
2023/09/16 09:00:31;;;;;;;0.00;0.00;;;;;;;31.20;38.50;101535.91;5072418;28;20068;-70
2023/09/16 09:02:57;;;;;;;0.00;0.00;;;;;;;31.19;37.53;101534.28;5091426;28;20055;-69
2023/09/16 09:05:26;;;;;;;0.00;0.00;;;;;;;30.94;36.62;101536.22;5092448;28;20062;-70
2023/09/16 09:07:51;;;;;;;0.00;0.00;;;;;;;31.30;37.68;101532.66;5090255;28;20032;-70
2023/09/16 09:10:17;;;;;;;0.00;0.00;;;;;;;31.32;37.46;101526.75;5092226;28;20455;-70
2023/09/16 09:12:44;;;;;;;0.00;0.00;;;;;;;30.17;38.77;101527.88;5091970;28;20503;-69
2023/09/16 09:15:12;;;;;;;0.00;0.00;;;;;;;30.76;37.30;101531.22;5089480;28;20032;-69
2023/09/16 09:17:40;;;;;;;0.00;0.00;;;;;;;30.98;37.51;101531.59;5092604;28;20055;-68
2023/09/16 09:20:09;;;;;;;0.00;0.00;;;;;;;30.05;39.48;101534.16;5093190;28;20103;-70
2023/09/16 09:22:38;;;;;;;0.00;0.00;;;;;;;31.13;37.02;101530.13;5092723;28;20062;-71
2023/09/16 09:25:03;;;;;;;0.00;0.00;;;;;;;31.36;36.23;101541.56;5092418;28;20070;-69
2023/09/16 09:27:29;;;;;;;0.00;0.00;;;;;;;31.13;36.20;101536.47;5091888;28;20074;-70
2023/09/16 09:29:54;;;;;;;0.00;0.00;;;;;;;31.22;36.82;101538.31;5073600;28;20104;-70
2023/09/16 09:32:21;;;;;;;0.00;0.00;;;;;;;31.17;37.00;101544.94;5092415;28;20031;-70
2023/09/16 09:34:46;;;;;;;0.00;0.00;;;;;;;30.80;37.09;101541.25;5091989;28;20130;-70
2023/09/16 09:37:18;;;;;;;0.00;0.00;;;;;;;31.02;36.90;101540.06;5107610;28;20044;-70
2023/09/16 09:39:45;;;;;;;0.00;0.00;;;;;;;31.09;36.34;101541.13;5091709;28;20059;-70
2023/09/16 09:42:18;;;;;;;0.00;0.00;;;;;;;31.39;35.77;101538.13;5090196;28;20062;-70
2023/09/16 09:44:44;;;;;;;0.00;0.00;;;;;;;31.48;35.38;101536.84;5091882;28;20073;-71
2023/09/16 09:47:12;;;;;;;0.00;0.00;;;;;;;31.82;34.54;101529.97;5092221;28;20024;-70
2023/09/16 09:49:37;;;;;;;0.00;0.00;;;;;;;31.59;37.38;101528.84;5099413;28;20039;-70
2023/09/16 09:52:04;;;;;;;0.00;0.00;;;;;;;30.98;37.13;101534.38;5094123;28;20032;-69
2023/09/16 09:54:30;;;;;;;0.00;0.00;;;;;;;30.04;39.23;101538.09;5091128;28;20036;-70
2023/09/16 09:56:56;;;;;;;0.00;0.00;;;;;;;30.87;39.31;101532.41;5091220;28;20047;-70
2023/09/16 09:59:21;;;;;;;0.00;0.00;;;;;;;31.66;36.34;101529.88;5091859;28;20028;-70
2023/09/16 10:01:47;;;;;;;0.00;0.00;;;;;;;31.22;37.03;101528.03;5091517;28;20148;-70
2023/09/16 10:04:13;;;;;;;0.00;0.00;;;;;;;31.73;36.05;101532.88;5091413;28;20538;-71
2023/09/16 10:06:39;;;;;;;0.00;0.00;;;;;;;31.89;35.76;101522.63;5091374;28;20672;-70
2023/09/16 10:09:04;;;;;;;0.00;0.00;;;;;;;31.61;36.13;101527.31;5091163;28;20036;-70
2023/09/16 10:11:32;;;;;;;0.00;0.00;;;;;;;31.71;35.28;101528.81;5090059;28;20032;-69
2023/09/16 10:13:59;;;;;;;0.00;0.00;;;;;;;31.54;35.06;101529.09;5089957;28;20036;-70
2023/09/16 10:16:25;;;;;;;0.00;0.00;;;;;;;31.44;35.05;101529.56;5089828;28;20036;-69
2023/09/16 10:18:51;;;;;;;0.00;0.00;;;;;;;32.63;34.13;101532.31;5090543;28;20507;-71
2023/09/16 10:21:18;;;;;;;0.00;0.00;;;;;;;32.40;34.61;101529.28;5071733;28;20040;-71
2023/09/16 10:23:45;;;;;;;0.00;0.00;;;;;;;32.37;34.17;101534.78;5072179;28;20044;-70
2023/09/16 10:26:11;;;;;;;0.00;0.00;;;;;;;31.83;35.85;101542.69;5090354;28;20027;-70
2023/09/16 10:28:43;;;;;;;0.00;0.00;;;;;;;32.47;35.12;101539.84;5089933;28;20051;-74
2023/09/16 10:31:09;;;;;;;0.00;0.00;;;;;;;33.26;33.78;101528.41;5089328;28;20036;-70
2023/09/16 10:33:36;;;;;;;0.00;0.00;;;;;;;32.92;32.96;101531.09;5094186;28;20248;-70
2023/09/16 10:36:01;;;;;;;0.00;0.00;;;;;;;33.37;32.40;101535.06;5089901;28;20074;-68
2023/09/16 10:38:27;;;;;;;0.00;0.00;;;;;;;33.32;32.01;101529.75;5090057;28;20020;-68
2023/09/16 10:40:53;;;;;;;0.00;0.00;;;;;;;32.76;33.03;101529.13;5090666;28;20064;-70
2023/09/16 10:43:19;;;;;;;0.00;0.00;;;;;;;33.09;33.09;101522.41;5090106;28;20048;-69
2023/09/16 10:45:46;;;;;;;0.00;0.00;;;;;;;33.14;33.47;101531.28;5090131;28;20028;-69
2023/09/16 10:48:11;;;;;;;0.00;0.00;;;;;;;32.30;32.87;101535.38;5090441;28;20067;-70
2023/09/16 10:50:39;;;;;;;0.00;0.00;;;;;;;32.84;31.86;101528.13;5086204;28;20012;-69
2023/09/16 10:53:10;;;;;;;0.00;0.00;;;;;;;33.21;32.60;101522.31;5088765;28;20020;-70
2023/09/16 10:55:58;;;;;;;0.00;0.00;;;;;;;33.08;32.38;101526.38;5089297;28;20464;-70
2023/09/16 10:58:48;;;;;;;0.00;0.00;;;;;;;32.53;32.60;101522.53;5087130;28;20036;-71
2023/09/16 11:01:55;;;;;;;0.00;0.00;;;;;;;33.63;32.22;101528.91;5088454;28;20048;-69
2023/09/16 11:04:20;;;;;;;0.00;0.00;;;;;;;33.25;32.06;101518.44;5019260;28;20041;-68
2023/09/16 11:06:52;;;;;;;0.00;0.00;;;;;;;33.73;31.85;101516.38;5014836;28;20030;-70
2023/09/16 11:09:21;;;;;;;0.00;0.00;;;;;;;34.03;31.67;101521.03;5012775;28;20037;-70
2023/09/16 11:11:48;;;;;;;0.00;0.00;;;;;;;33.68;31.66;101523.03;5016834;28;20041;-69
2023/09/16 11:14:14;;;;;;;0.00;0.00;;;;;;;32.14;34.03;101522.59;5017503;28;21700;-69
2023/09/16 11:16:51;;;;;;;0.00;0.00;;;;;;;32.92;32.30;101515.22;5015328;28;20048;-69
2023/09/16 11:19:21;;;;;;;0.00;0.00;;;;;;;33.69;31.43;101521.84;5013484;28;20521;-69
2023/09/16 11:21:47;;;;;;;0.00;0.00;;;;;;;34.22;30.77;101514.66;5007316;28;20205;-70